sensor_id;sensor_type;location;lat;lon;timestamp;P1;durP1;ratioP1;P2;durP2;ratioP2
23995;SDS011;12207;50.076;8.848;2024-03-02T00:01:16;325.80;;;71.45;;
23995;SDS011;12207;50.076;8.848;2024-03-02T00:03:42;327.13;;;72.18;;
23995;SDS011;12207;50.076;8.848;2024-03-02T00:06:09;327.60;;;71.25;;
23995;SDS011;12207;50.076;8.848;2024-03-02T00:08:35;331.85;;;72.13;;
23995;SDS011;12207;50.076;8.848;2024-03-02T00:11:02;337.05;;;72.90;;
23995;SDS011;12207;50.076;8.848;2024-03-02T00:13:28;342.55;;;73.57;;
23995;SDS011;12207;50.076;8.848;2024-03-02T00:15:56;338.95;;;71.97;;
23995;SDS011;12207;50.076;8.848;2024-03-02T00:18:27;328.48;;;71.80;;
23995;SDS011;12207;50.076;8.848;2024-03-02T00:20:57;329.55;;;71.95;;
23995;SDS011;12207;50.076;8.848;2024-03-02T00:23:24;333.98;;;72.07;;
23995;SDS011;12207;50.076;8.848;2024-03-02T00:25:56;328.77;;;71.78;;
23995;SDS011;12207;50.076;8.848;2024-03-02T00:30:58;331.38;;;71.93;;
23995;SDS011;12207;50.076;8.848;2024-03-02T00:33:27;334.92;;;71.47;;
23995;SDS011;12207;50.076;8.848;2024-03-02T00:35:55;351.65;;;73.68;;
23995;SDS011;12207;50.076;8.848;2024-03-02T00:38:22;328.50;;;71.82;;
23995;SDS011;12207;50.076;8.848;2024-03-02T00:40:52;321.15;;;71.00;;
23995;SDS011;12207;50.076;8.848;2024-03-02T00:43:28;343.35;;;72.80;;
23995;SDS011;12207;50.076;8.848;2024-03-02T00:46:10;339.92;;;72.10;;
23995;SDS011;12207;50.076;8.848;2024-03-02T00:48:57;328.85;;;71.45;;
23995;SDS011;12207;50.076;8.848;2024-03-02T00:51:26;326.77;;;70.88;;
23995;SDS011;12207;50.076;8.848;2024-03-02T00:53:58;333.75;;;71.75;;
23995;SDS011;12207;50.076;8.848;2024-03-02T00:56:28;348.52;;;73.28;;
23995;SDS011;12207;50.076;8.848;2024-03-02T00:58:55;345.25;;;72.72;;
23995;SDS011;12207;50.076;8.848;2024-03-02T01:01:21;337.55;;;72.00;;
23995;SDS011;12207;50.076;8.848;2024-03-02T01:03:57;339.15;;;72.43;;
23995;SDS011;12207;50.076;8.848;2024-03-02T01:06:23;331.13;;;71.50;;
23995;SDS011;12207;50.076;8.848;2024-03-02T01:08:49;328.00;;;71.22;;
23995;SDS011;12207;50.076;8.848;2024-03-02T01:11:16;328.33;;;71.80;;
23995;SDS011;12207;50.076;8.848;2024-03-02T01:13:43;329.45;;;71.38;;
23995;SDS011;12207;50.076;8.848;2024-03-02T01:16:10;321.10;;;70.95;;
23995;SDS011;12207;50.076;8.848;2024-03-02T01:18:36;328.95;;;71.28;;
23995;SDS011;12207;50.076;8.848;2024-03-02T01:21:02;323.23;;;70.35;;
23995;SDS011;12207;50.076;8.848;2024-03-02T01:23:28;318.38;;;70.30;;
23995;SDS011;12207;50.076;8.848;2024-03-02T01:25:54;322.45;;;70.55;;
23995;SDS011;12207;50.076;8.848;2024-03-02T01:28:20;315.10;;;69.53;;
23995;SDS011;12207;50.076;8.848;2024-03-02T01:30:47;339.65;;;72.03;;
23995;SDS011;12207;50.076;8.848;2024-03-02T01:33:13;317.23;;;69.75;;
23995;SDS011;12207;50.076;8.848;2024-03-02T01:35:39;319.60;;;70.30;;
23995;SDS011;12207;50.076;8.848;2024-03-02T01:38:08;325.35;;;71.40;;
23995;SDS011;12207;50.076;8.848;2024-03-02T01:40:35;315.33;;;70.28;;
23995;SDS011;12207;50.076;8.848;2024-03-02T01:43:01;326.95;;;70.88;;
23995;SDS011;12207;50.076;8.848;2024-03-02T01:45:31;329.73;;;71.55;;
23995;SDS011;12207;50.076;8.848;2024-03-02T01:47:58;329.38;;;71.88;;
23995;SDS011;12207;50.076;8.848;2024-03-02T01:50:28;322.83;;;70.85;;
23995;SDS011;12207;50.076;8.848;2024-03-02T01:52:58;316.63;;;70.72;;
23995;SDS011;12207;50.076;8.848;2024-03-02T01:55:30;329.15;;;70.88;;
23995;SDS011;12207;50.076;8.848;2024-03-02T01:57:58;330.73;;;71.63;;
23995;SDS011;12207;50.076;8.848;2024-03-02T02:00:24;322.88;;;71.15;;
23995;SDS011;12207;50.076;8.848;2024-03-02T02:02:51;328.85;;;71.85;;
23995;SDS011;12207;50.076;8.848;2024-03-02T02:05:18;327.33;;;71.00;;
23995;SDS011;12207;50.076;8.848;2024-03-02T02:07:44;317.25;;;70.32;;
23995;SDS011;12207;50.076;8.848;2024-03-02T02:10:13;327.13;;;71.38;;
23995;SDS011;12207;50.076;8.848;2024-03-02T02:12:39;342.20;;;72.20;;
23995;SDS011;12207;50.076;8.848;2024-03-02T02:15:21;328.00;;;70.55;;
23995;SDS011;12207;50.076;8.848;2024-03-02T02:17:54;325.95;;;71.15;;
23995;SDS011;12207;50.076;8.848;2024-03-02T02:20:21;329.38;;;71.32;;
23995;SDS011;12207;50.076;8.848;2024-03-02T02:23:04;341.65;;;73.10;;
23995;SDS011;12207;50.076;8.848;2024-03-02T02:25:34;319.23;;;69.85;;
23995;SDS011;12207;50.076;8.848;2024-03-02T02:28:03;317.67;;;69.85;;
23995;SDS011;12207;50.076;8.848;2024-03-02T02:30:31;330.00;;;71.75;;
23995;SDS011;12207;50.076;8.848;2024-03-02T02:32:57;312.65;;;69.90;;
23995;SDS011;12207;50.076;8.848;2024-03-02T02:35:24;326.50;;;70.45;;
23995;SDS011;12207;50.076;8.848;2024-03-02T02:37:50;321.52;;;70.38;;
23995;SDS011;12207;50.076;8.848;2024-03-02T02:40:17;323.63;;;71.68;;
23995;SDS011;12207;50.076;8.848;2024-03-02T02:42:44;331.17;;;72.07;;
23995;SDS011;12207;50.076;8.848;2024-03-02T02:45:13;331.55;;;71.68;;
23995;SDS011;12207;50.076;8.848;2024-03-02T02:47:43;323.27;;;70.07;;
23995;SDS011;12207;50.076;8.848;2024-03-02T02:50:10;334.10;;;71.25;;
23995;SDS011;12207;50.076;8.848;2024-03-02T02:52:37;335.35;;;71.28;;
23995;SDS011;12207;50.076;8.848;2024-03-02T02:55:06;318.20;;;69.68;;
23995;SDS011;12207;50.076;8.848;2024-03-02T02:57:37;319.35;;;69.90;;
23995;SDS011;12207;50.076;8.848;2024-03-02T03:02:36;323.90;;;70.07;;
23995;SDS011;12207;50.076;8.848;2024-03-02T03:05:03;339.52;;;71.05;;
23995;SDS011;12207;50.076;8.848;2024-03-02T03:07:31;319.33;;;69.55;;
23995;SDS011;12207;50.076;8.848;2024-03-02T03:09:58;329.02;;;70.47;;
23995;SDS011;12207;50.076;8.848;2024-03-02T03:12:24;311.70;;;68.75;;
23995;SDS011;12207;50.076;8.848;2024-03-02T03:14:50;329.35;;;71.22;;
23995;SDS011;12207;50.076;8.848;2024-03-02T03:17:16;314.98;;;69.53;;
23995;SDS011;12207;50.076;8.848;2024-03-02T03:19:43;322.85;;;70.03;;
23995;SDS011;12207;50.076;8.848;2024-03-02T03:22:09;315.02;;;69.10;;
23995;SDS011;12207;50.076;8.848;2024-03-02T03:24:35;318.90;;;69.82;;
23995;SDS011;12207;50.076;8.848;2024-03-02T03:27:01;322.50;;;70.05;;
23995;SDS011;12207;50.076;8.848;2024-03-02T03:29:30;321.00;;;69.60;;
23995;SDS011;12207;50.076;8.848;2024-03-02T03:31:56;319.73;;;69.15;;
23995;SDS011;12207;50.076;8.848;2024-03-02T03:34:22;308.77;;;68.18;;
23995;SDS011;12207;50.076;8.848;2024-03-02T03:36:48;340.02;;;71.38;;
23995;SDS011;12207;50.076;8.848;2024-03-02T03:39:14;323.90;;;70.78;;
23995;SDS011;12207;50.076;8.848;2024-03-02T03:41:40;316.77;;;69.45;;
23995;SDS011;12207;50.076;8.848;2024-03-02T03:44:07;315.92;;;69.50;;
23995;SDS011;12207;50.076;8.848;2024-03-02T03:46:33;323.05;;;70.25;;
23995;SDS011;12207;50.076;8.848;2024-03-02T03:48:59;307.50;;;68.75;;
23995;SDS011;12207;50.076;8.848;2024-03-02T03:51:25;310.63;;;68.72;;
23995;SDS011;12207;50.076;8.848;2024-03-02T03:53:51;340.70;;;72.90;;
23995;SDS011;12207;50.076;8.848;2024-03-02T03:56:17;315.25;;;69.22;;
23995;SDS011;12207;50.076;8.848;2024-03-02T03:58:43;314.83;;;69.07;;
23995;SDS011;12207;50.076;8.848;2024-03-02T04:01:09;327.45;;;70.03;;
23995;SDS011;12207;50.076;8.848;2024-03-02T04:03:35;315.20;;;69.13;;
23995;SDS011;12207;50.076;8.848;2024-03-02T04:06:01;316.58;;;70.72;;
23995;SDS011;12207;50.076;8.848;2024-03-02T04:08:28;315.88;;;69.85;;
23995;SDS011;12207;50.076;8.848;2024-03-02T04:10:54;318.17;;;69.88;;
23995;SDS011;12207;50.076;8.848;2024-03-02T04:13:20;315.35;;;69.80;;
23995;SDS011;12207;50.076;8.848;2024-03-02T04:15:47;313.55;;;69.15;;
23995;SDS011;12207;50.076;8.848;2024-03-02T04:18:13;309.17;;;68.57;;
23995;SDS011;12207;50.076;8.848;2024-03-02T04:20:39;314.45;;;68.93;;
23995;SDS011;12207;50.076;8.848;2024-03-02T04:23:05;323.58;;;70.00;;
23995;SDS011;12207;50.076;8.848;2024-03-02T04:25:31;320.45;;;70.07;;
23995;SDS011;12207;50.076;8.848;2024-03-02T04:27:57;320.75;;;69.78;;
23995;SDS011;12207;50.076;8.848;2024-03-02T04:30:23;315.58;;;69.97;;
23995;SDS011;12207;50.076;8.848;2024-03-02T04:32:50;336.73;;;70.85;;
23995;SDS011;12207;50.076;8.848;2024-03-02T04:35:16;323.27;;;70.43;;
23995;SDS011;12207;50.076;8.848;2024-03-02T04:37:42;315.77;;;69.40;;
23995;SDS011;12207;50.076;8.848;2024-03-02T04:40:08;321.60;;;69.95;;
23995;SDS011;12207;50.076;8.848;2024-03-02T04:42:35;310.13;;;69.25;;
23995;SDS011;12207;50.076;8.848;2024-03-02T04:45:01;305.23;;;68.45;;
23995;SDS011;12207;50.076;8.848;2024-03-02T04:47:28;328.35;;;70.80;;
23995;SDS011;12207;50.076;8.848;2024-03-02T04:49:54;322.73;;;70.30;;
23995;SDS011;12207;50.076;8.848;2024-03-02T04:52:20;306.92;;;68.30;;
23995;SDS011;12207;50.076;8.848;2024-03-02T04:54:46;313.42;;;68.78;;
23995;SDS011;12207;50.076;8.848;2024-03-02T04:57:34;318.27;;;69.72;;
23995;SDS011;12207;50.076;8.848;2024-03-02T05:00:00;321.25;;;69.32;;
23995;SDS011;12207;50.076;8.848;2024-03-02T05:02:33;323.80;;;69.68;;
23995;SDS011;12207;50.076;8.848;2024-03-02T05:05:00;307.60;;;68.78;;
23995;SDS011;12207;50.076;8.848;2024-03-02T05:07:27;321.30;;;69.90;;
23995;SDS011;12207;50.076;8.848;2024-03-02T05:09:53;311.40;;;68.97;;
23995;SDS011;12207;50.076;8.848;2024-03-02T05:12:19;328.30;;;70.63;;
23995;SDS011;12207;50.076;8.848;2024-03-02T05:14:45;314.45;;;69.53;;
23995;SDS011;12207;50.076;8.848;2024-03-02T05:17:12;323.50;;;69.97;;
23995;SDS011;12207;50.076;8.848;2024-03-02T05:19:38;314.33;;;69.15;;
23995;SDS011;12207;50.076;8.848;2024-03-02T05:22:04;329.58;;;71.60;;
23995;SDS011;12207;50.076;8.848;2024-03-02T05:24:33;329.10;;;70.55;;
23995;SDS011;12207;50.076;8.848;2024-03-02T05:26:59;307.88;;;68.53;;
23995;SDS011;12207;50.076;8.848;2024-03-02T05:29:25;326.17;;;71.03;;
23995;SDS011;12207;50.076;8.848;2024-03-02T05:31:51;313.25;;;69.53;;
23995;SDS011;12207;50.076;8.848;2024-03-02T05:34:17;306.48;;;68.38;;
23995;SDS011;12207;50.076;8.848;2024-03-02T05:36:44;315.25;;;68.45;;
23995;SDS011;12207;50.076;8.848;2024-03-02T05:39:10;318.58;;;69.38;;
23995;SDS011;12207;50.076;8.848;2024-03-02T05:41:36;313.73;;;68.75;;
23995;SDS011;12207;50.076;8.848;2024-03-02T05:44:03;312.13;;;69.03;;
23995;SDS011;12207;50.076;8.848;2024-03-02T05:46:29;309.45;;;68.78;;
23995;SDS011;12207;50.076;8.848;2024-03-02T05:48:59;313.23;;;69.32;;
23995;SDS011;12207;50.076;8.848;2024-03-02T05:51:26;310.27;;;68.90;;
23995;SDS011;12207;50.076;8.848;2024-03-02T05:53:52;313.27;;;69.50;;
23995;SDS011;12207;50.076;8.848;2024-03-02T05:56:18;309.02;;;68.63;;
23995;SDS011;12207;50.076;8.848;2024-03-02T05:58:44;299.45;;;67.60;;
23995;SDS011;12207;50.076;8.848;2024-03-02T06:01:26;310.42;;;68.82;;
23995;SDS011;12207;50.076;8.848;2024-03-02T06:03:54;311.10;;;68.97;;
23995;SDS011;12207;50.076;8.848;2024-03-02T06:06:21;310.40;;;69.00;;
23995;SDS011;12207;50.076;8.848;2024-03-02T06:08:48;312.70;;;69.43;;
23995;SDS011;12207;50.076;8.848;2024-03-02T06:11:14;311.45;;;68.78;;
23995;SDS011;12207;50.076;8.848;2024-03-02T06:13:46;325.43;;;70.47;;
23995;SDS011;12207;50.076;8.848;2024-03-02T06:16:12;326.15;;;71.45;;
23995;SDS011;12207;50.076;8.848;2024-03-02T06:18:41;327.85;;;70.97;;
23995;SDS011;12207;50.076;8.848;2024-03-02T06:21:07;336.65;;;71.05;;
23995;SDS011;12207;50.076;8.848;2024-03-02T06:23:33;343.83;;;72.13;;
23995;SDS011;12207;50.076;8.848;2024-03-02T06:26:00;321.23;;;70.22;;
23995;SDS011;12207;50.076;8.848;2024-03-02T06:28:27;328.25;;;70.35;;
23995;SDS011;12207;50.076;8.848;2024-03-02T06:30:53;314.08;;;69.47;;
23995;SDS011;12207;50.076;8.848;2024-03-02T06:33:20;340.67;;;72.00;;
23995;SDS011;12207;50.076;8.848;2024-03-02T06:35:48;355.13;;;73.47;;
23995;SDS011;12207;50.076;8.848;2024-03-02T06:38:14;326.83;;;70.13;;
23995;SDS011;12207;50.076;8.848;2024-03-02T06:40:41;311.10;;;68.78;;
23995;SDS011;12207;50.076;8.848;2024-03-02T06:43:07;324.67;;;70.55;;
23995;SDS011;12207;50.076;8.848;2024-03-02T06:45:33;314.48;;;69.57;;
23995;SDS011;12207;50.076;8.848;2024-03-02T06:47:59;306.33;;;67.95;;
23995;SDS011;12207;50.076;8.848;2024-03-02T06:50:25;309.65;;;68.60;;
23995;SDS011;12207;50.076;8.848;2024-03-02T06:52:51;323.63;;;69.68;;
23995;SDS011;12207;50.076;8.848;2024-03-02T06:55:18;309.98;;;68.30;;
23995;SDS011;12207;50.076;8.848;2024-03-02T06:57:44;329.35;;;70.63;;
23995;SDS011;12207;50.076;8.848;2024-03-02T07:00:10;321.55;;;69.20;;
23995;SDS011;12207;50.076;8.848;2024-03-02T07:02:37;350.05;;;73.65;;
23995;SDS011;12207;50.076;8.848;2024-03-02T07:05:05;336.60;;;71.70;;
23995;SDS011;12207;50.076;8.848;2024-03-02T07:07:32;332.30;;;73.57;;
23995;SDS011;12207;50.076;8.848;2024-03-02T07:09:59;319.80;;;69.75;;
23995;SDS011;12207;50.076;8.848;2024-03-02T07:12:26;324.85;;;70.75;;
23995;SDS011;12207;50.076;8.848;2024-03-02T07:14:52;323.38;;;70.38;;
23995;SDS011;12207;50.076;8.848;2024-03-02T07:17:27;317.80;;;69.82;;
23995;SDS011;12207;50.076;8.848;2024-03-02T07:19:53;327.60;;;70.90;;
23995;SDS011;12207;50.076;8.848;2024-03-02T07:22:19;313.92;;;69.68;;
23995;SDS011;12207;50.076;8.848;2024-03-02T07:24:46;316.10;;;69.32;;
23995;SDS011;12207;50.076;8.848;2024-03-02T07:27:12;331.10;;;71.20;;
23995;SDS011;12207;50.076;8.848;2024-03-02T07:29:42;330.85;;;70.50;;
23995;SDS011;12207;50.076;8.848;2024-03-02T07:32:09;314.33;;;69.22;;
23995;SDS011;12207;50.076;8.848;2024-03-02T07:34:41;346.48;;;73.50;;
23995;SDS011;12207;50.076;8.848;2024-03-02T07:37:07;313.58;;;71.18;;
23995;SDS011;12207;50.076;8.848;2024-03-02T07:39:33;318.95;;;69.95;;
23995;SDS011;12207;50.076;8.848;2024-03-02T07:41:59;336.10;;;71.70;;
23995;SDS011;12207;50.076;8.848;2024-03-02T07:44:26;321.23;;;69.50;;
23995;SDS011;12207;50.076;8.848;2024-03-02T07:46:52;316.38;;;72.57;;
23995;SDS011;12207;50.076;8.848;2024-03-02T07:49:18;328.25;;;71.03;;
23995;SDS011;12207;50.076;8.848;2024-03-02T07:51:44;317.77;;;70.32;;
23995;SDS011;12207;50.076;8.848;2024-03-02T07:54:10;325.20;;;70.65;;
23995;SDS011;12207;50.076;8.848;2024-03-02T07:56:36;336.02;;;72.07;;
23995;SDS011;12207;50.076;8.848;2024-03-02T07:59:03;333.77;;;71.47;;
23995;SDS011;12207;50.076;8.848;2024-03-02T08:01:32;331.02;;;71.28;;
23995;SDS011;12207;50.076;8.848;2024-03-02T08:03:59;316.20;;;69.35;;
23995;SDS011;12207;50.076;8.848;2024-03-02T08:06:26;331.38;;;71.30;;
23995;SDS011;12207;50.076;8.848;2024-03-02T08:08:56;328.38;;;71.15;;
23995;SDS011;12207;50.076;8.848;2024-03-02T08:11:22;333.08;;;72.43;;
23995;SDS011;12207;50.076;8.848;2024-03-02T08:13:49;325.60;;;72.00;;
23995;SDS011;12207;50.076;8.848;2024-03-02T08:16:15;330.95;;;71.90;;
23995;SDS011;12207;50.076;8.848;2024-03-02T08:18:45;334.13;;;73.07;;
23995;SDS011;12207;50.076;8.848;2024-03-02T08:21:14;356.73;;;76.32;;
23995;SDS011;12207;50.076;8.848;2024-03-02T08:23:41;356.88;;;74.38;;
23995;SDS011;12207;50.076;8.848;2024-03-02T08:26:08;341.15;;;73.03;;
23995;SDS011;12207;50.076;8.848;2024-03-02T08:28:35;332.45;;;72.35;;
23995;SDS011;12207;50.076;8.848;2024-03-02T08:31:08;346.50;;;75.00;;
23995;SDS011;12207;50.076;8.848;2024-03-02T08:33:34;374.42;;;77.45;;
23995;SDS011;12207;50.076;8.848;2024-03-02T08:36:01;346.48;;;77.97;;
23995;SDS011;12207;50.076;8.848;2024-03-02T08:38:27;345.92;;;78.88;;
23995;SDS011;12207;50.076;8.848;2024-03-02T08:40:54;343.02;;;74.93;;
23995;SDS011;12207;50.076;8.848;2024-03-02T08:43:20;361.50;;;77.88;;
23995;SDS011;12207;50.076;8.848;2024-03-02T08:45:48;338.50;;;76.47;;
23995;SDS011;12207;50.076;8.848;2024-03-02T08:48:14;380.50;;;80.18;;
23995;SDS011;12207;50.076;8.848;2024-03-02T08:50:40;351.60;;;78.38;;
23995;SDS011;12207;50.076;8.848;2024-03-02T08:53:06;344.65;;;76.35;;
23995;SDS011;12207;50.076;8.848;2024-03-02T08:55:32;363.10;;;80.57;;
23995;SDS011;12207;50.076;8.848;2024-03-02T08:57:58;362.70;;;77.97;;
23995;SDS011;12207;50.076;8.848;2024-03-02T09:00:24;362.70;;;80.13;;
23995;SDS011;12207;50.076;8.848;2024-03-02T09:02:51;397.67;;;83.20;;
23995;SDS011;12207;50.076;8.848;2024-03-02T09:05:17;379.23;;;82.07;;
23995;SDS011;12207;50.076;8.848;2024-03-02T09:07:43;377.52;;;82.50;;
23995;SDS011;12207;50.076;8.848;2024-03-02T09:10:09;360.85;;;78.78;;
23995;SDS011;12207;50.076;8.848;2024-03-02T09:12:38;357.70;;;78.45;;
23995;SDS011;12207;50.076;8.848;2024-03-02T09:15:04;354.40;;;78.63;;
23995;SDS011;12207;50.076;8.848;2024-03-02T09:17:31;366.80;;;81.13;;
23995;SDS011;12207;50.076;8.848;2024-03-02T09:19:58;360.80;;;82.63;;
23995;SDS011;12207;50.076;8.848;2024-03-02T09:22:24;363.10;;;81.85;;
23995;SDS011;12207;50.076;8.848;2024-03-02T09:24:50;361.02;;;80.82;;
23995;SDS011;12207;50.076;8.848;2024-03-02T09:27:16;370.17;;;98.47;;
23995;SDS011;12207;50.076;8.848;2024-03-02T09:29:42;363.90;;;82.78;;
23995;SDS011;12207;50.076;8.848;2024-03-02T09:32:11;366.55;;;81.50;;
23995;SDS011;12207;50.076;8.848;2024-03-02T09:34:41;372.63;;;81.70;;
23995;SDS011;12207;50.076;8.848;2024-03-02T09:37:07;366.23;;;82.30;;
23995;SDS011;12207;50.076;8.848;2024-03-02T09:39:33;355.60;;;83.57;;
23995;SDS011;12207;50.076;8.848;2024-03-02T09:42:03;376.40;;;84.38;;
23995;SDS011;12207;50.076;8.848;2024-03-02T09:44:30;371.52;;;83.93;;
23995;SDS011;12207;50.076;8.848;2024-03-02T09:46:56;372.83;;;83.45;;
23995;SDS011;12207;50.076;8.848;2024-03-02T09:49:22;374.58;;;83.00;;
23995;SDS011;12207;50.076;8.848;2024-03-02T09:51:49;359.13;;;82.55;;
23995;SDS011;12207;50.076;8.848;2024-03-02T09:54:15;365.80;;;83.43;;
23995;SDS011;12207;50.076;8.848;2024-03-02T09:56:46;369.55;;;82.53;;
23995;SDS011;12207;50.076;8.848;2024-03-02T09:59:12;372.35;;;82.45;;
23995;SDS011;12207;50.076;8.848;2024-03-02T10:01:54;365.08;;;84.65;;
23995;SDS011;12207;50.076;8.848;2024-03-02T10:04:24;358.73;;;81.97;;
23995;SDS011;12207;50.076;8.848;2024-03-02T10:06:51;365.30;;;84.00;;
23995;SDS011;12207;50.076;8.848;2024-03-02T10:09:37;354.17;;;81.85;;
23995;SDS011;12207;50.076;8.848;2024-03-02T10:12:04;361.95;;;82.85;;
23995;SDS011;12207;50.076;8.848;2024-03-02T10:14:31;358.92;;;82.57;;
23995;SDS011;12207;50.076;8.848;2024-03-02T10:17:01;369.73;;;82.40;;
23995;SDS011;12207;50.076;8.848;2024-03-02T10:19:31;371.58;;;83.43;;
23995;SDS011;12207;50.076;8.848;2024-03-02T10:21:59;386.95;;;86.22;;
23995;SDS011;12207;50.076;8.848;2024-03-02T10:24:28;373.85;;;84.13;;
23995;SDS011;12207;50.076;8.848;2024-03-02T10:27:09;359.90;;;84.68;;
23995;SDS011;12207;50.076;8.848;2024-03-02T10:29:39;368.02;;;83.90;;
23995;SDS011;12207;50.076;8.848;2024-03-02T10:32:09;375.38;;;85.10;;
23995;SDS011;12207;50.076;8.848;2024-03-02T10:34:36;389.33;;;87.25;;
23995;SDS011;12207;50.076;8.848;2024-03-02T10:37:05;368.95;;;84.47;;
23995;SDS011;12207;50.076;8.848;2024-03-02T10:39:32;366.98;;;85.30;;
23995;SDS011;12207;50.076;8.848;2024-03-02T10:42:05;373.75;;;85.93;;
23995;SDS011;12207;50.076;8.848;2024-03-02T10:44:34;369.17;;;84.43;;
23995;SDS011;12207;50.076;8.848;2024-03-02T10:47:01;371.55;;;86.20;;
23995;SDS011;12207;50.076;8.848;2024-03-02T10:49:29;371.33;;;86.60;;
23995;SDS011;12207;50.076;8.848;2024-03-02T10:51:57;391.05;;;89.07;;
23995;SDS011;12207;50.076;8.848;2024-03-02T10:54:24;376.10;;;86.93;;
23995;SDS011;12207;50.076;8.848;2024-03-02T10:57:01;383.27;;;92.03;;
23995;SDS011;12207;50.076;8.848;2024-03-02T10:59:28;384.55;;;90.03;;
23995;SDS011;12207;50.076;8.848;2024-03-02T11:02:02;387.45;;;93.07;;
23995;SDS011;12207;50.076;8.848;2024-03-02T11:04:30;381.95;;;89.57;;
23995;SDS011;12207;50.076;8.848;2024-03-02T11:06:58;392.65;;;95.45;;
23995;SDS011;12207;50.076;8.848;2024-03-02T11:09:35;385.88;;;94.50;;
23995;SDS011;12207;50.076;8.848;2024-03-02T11:12:30;392.30;;;93.63;;
23995;SDS011;12207;50.076;8.848;2024-03-02T11:15:02;383.33;;;95.32;;
23995;SDS011;12207;50.076;8.848;2024-03-02T11:17:34;385.45;;;95.55;;
23995;SDS011;12207;50.076;8.848;2024-03-02T11:20:02;409.27;;;98.88;;
23995;SDS011;12207;50.076;8.848;2024-03-02T11:22:29;397.05;;;98.75;;
23995;SDS011;12207;50.076;8.848;2024-03-02T11:24:56;393.63;;;96.68;;
23995;SDS011;12207;50.076;8.848;2024-03-02T11:32:57;392.80;;;95.70;;
23995;SDS011;12207;50.076;8.848;2024-03-02T11:35:33;386.67;;;95.40;;
23995;SDS011;12207;50.076;8.848;2024-03-02T11:38:12;384.13;;;94.35;;
23995;SDS011;12207;50.076;8.848;2024-03-02T11:40:38;397.92;;;97.82;;
23995;SDS011;12207;50.076;8.848;2024-03-02T11:43:05;409.55;;;101.18;;
23995;SDS011;12207;50.076;8.848;2024-03-02T11:45:33;386.70;;;98.55;;
23995;SDS011;12207;50.076;8.848;2024-03-02T11:48:00;391.90;;;98.07;;
23995;SDS011;12207;50.076;8.848;2024-03-02T11:50:28;406.50;;;99.40;;
23995;SDS011;12207;50.076;8.848;2024-03-02T11:52:55;399.42;;;99.63;;
23995;SDS011;12207;50.076;8.848;2024-03-02T11:55:23;391.73;;;96.35;;
23995;SDS011;12207;50.076;8.848;2024-03-02T11:57:52;406.63;;;98.40;;
23995;SDS011;12207;50.076;8.848;2024-03-02T12:00:18;408.27;;;99.00;;
23995;SDS011;12207;50.076;8.848;2024-03-02T12:02:59;401.55;;;96.18;;
23995;SDS011;12207;50.076;8.848;2024-03-02T12:05:33;393.95;;;94.72;;
23995;SDS011;12207;50.076;8.848;2024-03-02T12:08:01;406.70;;;98.72;;
23995;SDS011;12207;50.076;8.848;2024-03-02T12:10:29;406.15;;;97.55;;
23995;SDS011;12207;50.076;8.848;2024-03-02T12:13:05;407.33;;;99.80;;
23995;SDS011;12207;50.076;8.848;2024-03-02T12:15:33;414.38;;;99.05;;
23995;SDS011;12207;50.076;8.848;2024-03-02T12:18:01;410.05;;;97.65;;
23995;SDS011;12207;50.076;8.848;2024-03-02T12:20:29;411.00;;;98.45;;
23995;SDS011;12207;50.076;8.848;2024-03-02T12:23:00;404.70;;;96.75;;
23995;SDS011;12207;50.076;8.848;2024-03-02T12:25:29;382.58;;;92.45;;
23995;SDS011;12207;50.076;8.848;2024-03-02T12:27:57;370.63;;;92.70;;
23995;SDS011;12207;50.076;8.848;2024-03-02T12:30:29;398.40;;;94.53;;
23995;SDS011;12207;50.076;8.848;2024-03-02T12:32:56;403.30;;;98.32;;
23995;SDS011;12207;50.076;8.848;2024-03-02T12:35:22;390.80;;;94.20;;
23995;SDS011;12207;50.076;8.848;2024-03-02T12:37:51;399.40;;;94.70;;
23995;SDS011;12207;50.076;8.848;2024-03-02T12:40:18;394.88;;;95.32;;
23995;SDS011;12207;50.076;8.848;2024-03-02T12:42:49;389.77;;;94.80;;
23995;SDS011;12207;50.076;8.848;2024-03-02T12:45:15;400.08;;;96.35;;
23995;SDS011;12207;50.076;8.848;2024-03-02T12:47:48;388.77;;;94.03;;
23995;SDS011;12207;50.076;8.848;2024-03-02T12:50:16;422.25;;;98.30;;
23995;SDS011;12207;50.076;8.848;2024-03-02T12:52:42;388.63;;;95.65;;
23995;SDS011;12207;50.076;8.848;2024-03-02T12:55:09;397.13;;;95.25;;
23995;SDS011;12207;50.076;8.848;2024-03-02T12:57:35;392.25;;;98.40;;
23995;SDS011;12207;50.076;8.848;2024-03-02T13:00:02;382.85;;;97.57;;
23995;SDS011;12207;50.076;8.848;2024-03-02T13:02:35;394.95;;;95.85;;
23995;SDS011;12207;50.076;8.848;2024-03-02T13:05:02;404.02;;;96.65;;
23995;SDS011;12207;50.076;8.848;2024-03-02T13:07:28;388.98;;;94.85;;
23995;SDS011;12207;50.076;8.848;2024-03-02T13:09:55;389.85;;;94.22;;
23995;SDS011;12207;50.076;8.848;2024-03-02T13:12:22;393.63;;;94.38;;
23995;SDS011;12207;50.076;8.848;2024-03-02T13:14:51;379.40;;;92.82;;
23995;SDS011;12207;50.076;8.848;2024-03-02T13:17:17;404.83;;;94.53;;
23995;SDS011;12207;50.076;8.848;2024-03-02T13:19:56;385.75;;;95.57;;
23995;SDS011;12207;50.076;8.848;2024-03-02T13:22:24;395.00;;;95.13;;
23995;SDS011;12207;50.076;8.848;2024-03-02T13:24:51;386.33;;;92.00;;
23995;SDS011;12207;50.076;8.848;2024-03-02T13:27:21;399.33;;;95.57;;
23995;SDS011;12207;50.076;8.848;2024-03-02T13:29:48;385.70;;;94.35;;
23995;SDS011;12207;50.076;8.848;2024-03-02T13:32:15;377.10;;;92.75;;
23995;SDS011;12207;50.076;8.848;2024-03-02T13:34:42;385.75;;;92.88;;
23995;SDS011;12207;50.076;8.848;2024-03-02T13:37:08;384.05;;;90.53;;
23995;SDS011;12207;50.076;8.848;2024-03-02T13:39:37;373.08;;;92.22;;
23995;SDS011;12207;50.076;8.848;2024-03-02T13:42:08;379.73;;;90.18;;
23995;SDS011;12207;50.076;8.848;2024-03-02T13:44:34;386.55;;;90.57;;
23995;SDS011;12207;50.076;8.848;2024-03-02T13:47:01;387.35;;;90.38;;
23995;SDS011;12207;50.076;8.848;2024-03-02T13:49:28;387.48;;;91.03;;
23995;SDS011;12207;50.076;8.848;2024-03-02T13:52:02;392.55;;;90.30;;
23995;SDS011;12207;50.076;8.848;2024-03-02T13:54:38;389.08;;;91.35;;
23995;SDS011;12207;50.076;8.848;2024-03-02T13:57:11;385.75;;;89.60;;
23995;SDS011;12207;50.076;8.848;2024-03-02T13:59:38;377.60;;;93.63;;
23995;SDS011;12207;50.076;8.848;2024-03-02T14:02:05;373.63;;;89.30;;
23995;SDS011;12207;50.076;8.848;2024-03-02T14:04:32;378.33;;;90.22;;
23995;SDS011;12207;50.076;8.848;2024-03-02T14:06:59;388.92;;;91.80;;
23995;SDS011;12207;50.076;8.848;2024-03-02T14:09:28;386.55;;;93.45;;
23995;SDS011;12207;50.076;8.848;2024-03-02T14:11:54;391.50;;;92.43;;
23995;SDS011;12207;50.076;8.848;2024-03-02T14:14:21;382.52;;;89.95;;
23995;SDS011;12207;50.076;8.848;2024-03-02T14:16:48;380.52;;;91.32;;
23995;SDS011;12207;50.076;8.848;2024-03-02T14:19:14;385.80;;;91.55;;
23995;SDS011;12207;50.076;8.848;2024-03-02T14:21:40;402.73;;;93.70;;
23995;SDS011;12207;50.076;8.848;2024-03-02T14:24:06;397.40;;;91.28;;